Time;durP1;ratioP1;P1;durP2;ratioP2;P2;SDS_P1;SDS_P2;PMS_P1;PMS_P2;Temp;Humidity;BMP_temperature;BMP_pressure;BME280_temperature;BME280_humidity;BME280_pressure;Samples;Min_cycle;Max_cycle;Signal;HPM_P1;HPM_P2
2021/07/03 00:01:00;;;;;;;12.60;8.60;;;;;;;11.95;92.53;96406.25;5006098;28;20033;-79
2021/07/03 00:03:26;;;;;;;14.37;8.43;;;;;;;11.93;92.60;96403.75;4996773;28;20038;-79
2021/07/03 00:05:51;;;;;;;12.67;7.87;;;;;;;11.97;92.45;96405.09;5011572;28;20507;-81
2021/07/03 00:08:17;;;;;;;12.00;7.87;;;;;;;11.96;92.40;96402.63;5028992;28;20018;-80
2021/07/03 00:10:43;;;;;;;11.77;7.40;;;;;;;11.92;92.73;96396.84;5011839;28;20057;-80
2021/07/03 00:13:09;;;;;;;11.23;7.80;;;;;;;11.97;92.26;96391.94;4995865;28;20484;-79
2021/07/03 00:15:35;;;;;;;10.47;7.17;;;;;;;11.96;92.70;96402.63;5010222;28;20036;-79
2021/07/03 00:18:01;;;;;;;17.27;8.50;;;;;;;12.00;92.62;96404.78;5008544;28;20515;-80
2021/07/03 00:20:27;;;;;;;13.40;8.80;;;;;;;11.99;91.97;96408.38;5025900;28;20049;-80
2021/07/03 00:22:54;;;;;;;13.63;8.60;;;;;;;12.01;92.15;96411.69;5009218;28;20046;-81
2021/07/03 00:25:28;;;;;;;11.60;7.90;;;;;;;12.10;91.94;96407.22;4988818;28;20033;-80
2021/07/03 00:27:54;;;;;;;10.83;7.83;;;;;;;12.09;91.01;96402.13;5024108;28;20035;-80
2021/07/03 00:30:20;;;;;;;11.40;7.33;;;;;;;12.01;91.27;96414.31;5025310;28;20025;-80
2021/07/03 00:32:47;;;;;;;13.20;7.83;;;;;;;11.97;92.13;96412.16;5005976;28;20519;-80
2021/07/03 00:35:12;;;;;;;12.40;7.87;;;;;;;12.02;92.12;96402.78;5009239;28;20018;-80
2021/07/03 00:37:38;;;;;;;11.20;7.47;;;;;;;11.92;92.13;96411.84;5006427;28;20037;-80
2021/07/03 00:40:06;;;;;;;14.07;7.97;;;;;;;11.86;92.20;96407.22;5016883;28;20473;-80
2021/07/03 00:42:32;;;;;;;12.10;8.00;;;;;;;11.79;92.58;96407.84;5008420;28;20507;-80
2021/07/03 00:44:59;;;;;;;12.20;7.53;;;;;;;11.76;93.25;96407.34;5025548;28;20032;-80
2021/07/03 00:47:24;;;;;;;12.57;7.27;;;;;;;11.74;93.28;96409.31;5007148;28;20485;-79
2021/07/03 00:49:50;;;;;;;11.40;7.70;;;;;;;11.61;94.18;96403.69;5011185;28;20109;-80
2021/07/03 00:52:16;;;;;;;11.07;8.00;;;;;;;11.65;94.05;96410.28;4996352;28;20042;-80
2021/07/03 00:54:45;;;;;;;11.27;7.63;;;;;;;11.70;93.76;96410.59;5010147;28;20034;-80
2021/07/03 00:57:13;;;;;;;12.83;8.13;;;;;;;11.77;93.60;96409.00;5011640;28;20080;-81
2021/07/03 00:59:45;;;;;;;10.90;7.53;;;;;;;11.70;93.70;96408.81;5011154;28;20049;-81
2021/07/03 01:02:18;;;;;;;12.43;7.33;;;;;;;11.70;94.11;96403.56;5012313;28;20037;-80
2021/07/03 01:04:46;;;;;;;12.67;7.90;;;;;;;11.65;93.60;96405.00;5025639;28;20089;-80
2021/07/03 01:07:13;;;;;;;11.70;8.00;;;;;;;11.61;94.17;96406.34;5003832;28;20020;-79
2021/07/03 01:09:40;;;;;;;10.83;7.70;;;;;;;11.56;94.84;96407.63;5008226;28;20123;-80
2021/07/03 01:12:09;;;;;;;12.10;7.70;;;;;;;11.62;94.66;96400.06;5013609;28;20089;-80
2021/07/03 01:14:44;;;;;;;11.47;7.80;;;;;;;11.62;94.57;96402.69;5013015;28;20026;-80
2021/07/03 01:17:12;;;;;;;13.10;8.43;;;;;;;11.35;95.57;96406.41;4996453;28;20030;-81
2021/07/03 01:19:40;;;;;;;14.23;8.03;;;;;;;11.30;96.58;96407.72;5012571;28;20120;-80
2021/07/03 01:22:09;;;;;;;12.33;7.30;;;;;;;11.35;96.13;96404.59;5008674;28;20037;-80
2021/07/03 01:24:36;;;;;;;10.50;8.03;;;;;;;11.40;95.85;96396.22;5000468;28;20144;-79
2021/07/03 01:27:04;;;;;;;12.17;7.77;;;;;;;11.39;95.34;96400.66;4994650;28;20437;-81
2021/07/03 01:29:32;;;;;;;13.10;7.67;;;;;;;11.33;95.65;96401.28;5011820;28;20030;-80
2021/07/03 01:31:59;;;;;;;10.20;6.73;;;;;;;11.38;95.43;96399.03;4993883;28;20030;-80
2021/07/03 01:34:27;;;;;;;10.43;6.87;;;;;;;11.36;95.27;96400.97;5025087;28;20095;-80
2021/07/03 01:36:55;;;;;;;12.30;8.07;;;;;;;11.43;94.76;96401.97;5013889;28;20037;-80
2021/07/03 01:39:23;;;;;;;10.03;7.13;;;;;;;11.38;94.87;96406.91;5008104;28;20061;-79
2021/07/03 01:41:49;;;;;;;15.00;8.47;;;;;;;11.39;94.78;96405.09;4997122;28;20117;-79
2021/07/03 01:44:23;;;;;;;10.27;7.00;;;;;;;11.42;94.94;96405.59;5009477;28;20535;-80
2021/07/03 01:46:51;;;;;;;12.23;7.57;;;;;;;11.40;94.66;96396.22;4994481;28;20026;-80
2021/07/03 01:49:17;;;;;;;10.73;7.83;;;;;;;11.32;95.18;96402.28;4994719;28;20444;-80
2021/07/03 01:51:51;;;;;;;12.17;8.13;;;;;;;11.32;95.09;96399.66;5011458;28;20088;-80
2021/07/03 01:54:18;;;;;;;10.83;7.23;;;;;;;11.32;95.45;96394.38;5005667;28;20512;-80
2021/07/03 01:56:58;;;;;;;10.37;7.37;;;;;;;11.27;95.94;96400.16;5017230;28;20392;-80
2021/07/03 01:59:32;;;;;;;11.23;7.90;;;;;;;11.20;96.12;96401.78;5010355;28;20030;-79
2021/07/03 02:02:04;;;;;;;12.77;9.00;;;;;;;11.12;96.92;96393.00;5012246;28;20692;-77
2021/07/03 02:04:34;;;;;;;10.83;7.80;;;;;;;11.08;97.00;96398.59;4997793;28;20030;-80
2021/07/03 02:07:02;;;;;;;14.50;7.60;;;;;;;11.05;96.74;96396.25;4996891;28;20034;-79
2021/07/03 02:09:31;;;;;;;11.80;7.73;;;;;;;11.04;97.22;96389.34;5013177;28;20018;-79
2021/07/03 02:12:02;;;;;;;11.33;7.40;;;;;;;11.05;97.01;96393.63;5012006;28;20022;-80
2021/07/03 02:14:38;;;;;;;11.13;7.60;;;;;;;11.03;97.09;96392.13;5012641;28;20128;-80
2021/07/03 02:17:17;;;;;;;13.37;8.27;;;;;;;11.01;97.01;96392.31;5012403;28;20026;-80
2021/07/03 02:19:43;;;;;;;11.33;7.20;;;;;;;11.00;96.99;96398.56;5010067;28;20030;-80
2021/07/03 02:22:12;;;;;;;11.67;8.00;;;;;;;10.97;97.17;96390.16;5029132;28;20021;-80
2021/07/03 02:24:43;;;;;;;11.77;7.90;;;;;;;10.96;97.16;96391.94;4997321;28;20036;-80
2021/07/03 02:27:10;;;;;;;12.23;7.90;;;;;;;10.91;97.32;96388.16;5022419;28;20060;-79
2021/07/03 02:29:37;;;;;;;13.33;8.40;;;;;;;10.86;97.97;96388.59;5004615;28;20026;-79
2021/07/03 02:32:06;;;;;;;11.87;7.90;;;;;;;10.77;98.62;96393.00;5013071;28;20653;-79
2021/07/03 02:34:33;;;;;;;12.33;7.63;;;;;;;10.85;98.34;96394.84;5012592;28;20670;-80
2021/07/03 02:36:59;;;;;;;13.53;8.03;;;;;;;10.90;97.97;96395.22;5028886;28;20030;-80
2021/07/03 02:39:25;;;;;;;10.73;7.53;;;;;;;10.95;97.02;96394.75;5013717;28;20082;-78
2021/07/03 02:41:52;;;;;;;13.67;8.00;;;;;;;10.98;96.61;96397.88;5011669;28;20055;-80
2021/07/03 02:44:19;;;;;;;13.57;7.67;;;;;;;11.03;96.23;96397.41;5004603;28;20088;-79
2021/07/03 02:46:46;;;;;;;11.97;7.37;;;;;;;11.05;96.04;96403.34;4995717;28;20076;-79
2021/07/03 02:49:14;;;;;;;11.77;7.73;;;;;;;11.00;96.62;96401.19;4996651;28;20029;-80
2021/07/03 02:51:41;;;;;;;9.87;6.83;;;;;;;11.02;96.44;96403.66;5012565;28;20451;-79
2021/07/03 02:54:06;;;;;;;11.73;7.90;;;;;;;10.99;96.44;96404.78;5011969;28;20042;-80
2021/07/03 02:56:33;;;;;;;14.13;8.43;;;;;;;11.00;96.13;96401.19;4995873;28;20037;-80
2021/07/03 02:59:00;;;;;;;10.73;7.37;;;;;;;11.02;96.26;96401.03;5028326;28;20033;-79
2021/07/03 03:01:26;;;;;;;12.37;8.13;;;;;;;11.09;95.48;96391.50;5011894;28;20184;-79
2021/07/03 03:03:52;;;;;;;10.47;7.40;;;;;;;11.05;95.45;96398.91;4996126;28;20120;-78
2021/07/03 03:06:18;;;;;;;13.23;7.50;;;;;;;11.09;95.51;96397.59;5013260;28;20346;-79
2021/07/03 03:08:52;;;;;;;11.83;7.27;;;;;;;11.08;95.63;96395.94;5012044;28;20069;-80
2021/07/03 03:11:20;;;;;;;12.60;8.33;;;;;;;11.07;95.24;96396.13;5012018;28;20025;-79
2021/07/03 03:13:46;;;;;;;13.37;7.73;;;;;;;11.04;95.55;96389.34;5028920;28;20377;-79
2021/07/03 03:16:14;;;;;;;11.20;7.30;;;;;;;11.04;95.64;96393.81;5027966;28;20521;-79
2021/07/03 03:18:39;;;;;;;13.23;8.07;;;;;;;11.03;95.57;96392.97;5012634;28;20038;-80
2021/07/03 03:21:15;;;;;;;12.37;7.77;;;;;;;10.99;95.84;96396.06;5012478;28;20388;-80
2021/07/03 03:23:43;;;;;;;13.37;7.90;;;;;;;10.96;96.02;96391.94;5009751;28;20577;-80
2021/07/03 03:26:09;;;;;;;11.70;7.67;;;;;;;10.97;95.77;96388.34;5008953;28;20017;-80
2021/07/03 03:28:41;;;;;;;9.53;6.53;;;;;;;11.00;96.27;96385.41;5010750;28;20062;-80
2021/07/03 03:31:07;;;;;;;13.13;7.37;;;;;;;10.93;96.08;96389.66;5012521;28;20034;-79
2021/07/03 03:33:38;;;;;;;10.43;7.37;;;;;;;10.91;96.18;96393.41;5018585;28;20040;-80
2021/07/03 03:36:05;;;;;;;13.10;8.20;;;;;;;10.85;97.10;96397.47;5012794;28;20429;-80
2021/07/03 03:38:33;;;;;;;13.00;8.07;;;;;;;10.83;97.03;96389.75;5030256;28;20026;-80
2021/07/03 03:41:00;;;;;;;10.00;6.97;;;;;;;10.88;97.00;96397.19;4997337;28;20515;-79
2021/07/03 03:43:27;;;;;;;13.00;8.13;;;;;;;10.92;96.39;96393.25;5012035;28;20021;-80
2021/07/03 03:45:53;;;;;;;11.60;8.03;;;;;;;10.97;96.54;96393.59;5012543;28;20026;-79
2021/07/03 03:48:19;;;;;;;13.20;8.33;;;;;;;10.99;96.38;96386.38;4996178;28;20022;-80
2021/07/03 03:50:52;;;;;;;11.65;7.88;;;;;;;11.03;95.87;96389.50;5013876;28;20042;-80
2021/07/03 03:53:19;;;;;;;11.03;7.20;;;;;;;11.09;95.61;96387.06;5013851;28;20034;-80
2021/07/03 03:55:45;;;;;;;11.27;7.67;;;;;;;11.09;95.55;96387.06;5026144;28;20013;-80
2021/07/03 03:58:11;;;;;;;11.93;7.53;;;;;;;11.11;95.88;96376.38;5033606;28;20048;-81
2021/07/03 04:00:40;;;;;;;13.70;7.40;;;;;;;11.12;95.23;96377.22;5022957;28;20392;-78
2021/07/03 04:03:06;;;;;;;11.03;7.57;;;;;;;11.15;95.39;96374.25;4996658;28;20496;-79
2021/07/03 04:05:37;;;;;;;14.20;8.27;;;;;;;11.19;95.11;96378.22;5011610;28;20206;-79
2021/07/03 04:08:04;;;;;;;11.63;6.93;;;;;;;11.23;95.08;96371.66;5004277;28;20061;-80
2021/07/03 04:10:30;;;;;;;12.33;7.23;;;;;;;11.24;95.68;96374.13;5011380;28;20108;-79
2021/07/03 04:13:02;;;;;;;12.00;8.20;;;;;;;11.29;95.56;96378.91;5011339;28;20045;-80
2021/07/03 04:15:28;;;;;;;11.83;8.40;;;;;;;11.26;95.91;96382.69;4995151;28;20088;-79
2021/07/03 04:17:54;;;;;;;10.97;7.83;;;;;;;11.22;95.99;96378.72;5008938;28;20436;-79
2021/07/03 04:20:20;;;;;;;13.07;8.37;;;;;;;11.27;96.58;96383.53;5012430;28;20033;-79
2021/07/03 04:22:46;;;;;;;11.17;7.90;;;;;;;11.35;95.76;96380.91;4994944;28;20095;-80
2021/07/03 04:25:19;;;;;;;12.17;8.37;;;;;;;11.45;95.56;96388.66;4980875;28;20033;-80
2021/07/03 04:27:46;;;;;;;13.40;8.00;;;;;;;11.52;95.48;96393.13;5013132;28;20026;-80
2021/07/03 04:30:13;;;;;;;15.23;8.43;;;;;;;11.49;95.81;96390.81;5007800;28;20038;-80
2021/07/03 04:32:45;;;;;;;13.13;9.20;;;;;;;11.35;96.47;96394.06;4992678;28;20417;-81
2021/07/03 04:35:14;;;;;;;12.73;8.30;;;;;;;11.35;96.98;96388.81;4995108;28;20064;-80
2021/07/03 04:37:40;;;;;;;11.77;8.00;;;;;;;11.41;96.83;96382.91;5011528;28;20026;-79
2021/07/03 04:40:07;;;;;;;13.63;9.03;;;;;;;11.51;95.95;96395.94;5008136;28;20042;-80
2021/07/03 04:42:33;;;;;;;11.93;7.83;;;;;;;11.56;95.09;96397.06;5008558;28;20030;-79
2021/07/03 04:44:59;;;;;;;12.20;8.03;;;;;;;11.61;94.74;96386.06;5010637;28;20046;-79
2021/07/03 04:47:25;;;;;;;12.63;9.07;;;;;;;11.62;95.61;96398.25;5024213;28;20037;-79
2021/07/03 04:49:51;;;;;;;14.43;9.50;;;;;;;11.46;96.57;96395.56;4994999;28;20037;-79
2021/07/03 04:52:16;;;;;;;11.97;8.70;;;;;;;11.33;97.28;96394.25;5011315;28;20030;-80
2021/07/03 04:54:42;;;;;;;12.70;8.67;;;;;;;11.48;98.23;96399.72;5011132;28;20056;-80
2021/07/03 04:57:11;;;;;;;14.00;9.60;;;;;;;11.51;96.64;96402.03;4995162;28;20052;-79
2021/07/03 04:59:38;;;;;;;12.50;8.67;;;;;;;11.64;96.23;96398.09;5027620;28;20455;-79
2021/07/03 05:02:05;;;;;;;14.53;9.53;;;;;;;11.81;95.51;96394.50;5012253;28;20038;-78
2021/07/03 05:04:32;;;;;;;12.97;9.30;;;;;;;12.11;94.77;96387.00;5028088;28;20037;-80
2021/07/03 05:06:58;;;;;;;10.63;8.27;;;;;;;12.30;94.07;96384.00;4995191;28;20025;-79
2021/07/03 05:09:24;;;;;;;13.03;7.83;;;;;;;12.51;92.69;96394.03;5012894;28;20095;-80
2021/07/03 05:11:50;;;;;;;10.93;7.90;;;;;;;12.79;91.47;96394.47;5010766;28;20025;-79
2021/07/03 05:14:16;;;;;;;12.67;8.60;;;;;;;12.92;90.12;96388.66;5006299;28;20092;-80
2021/07/03 05:16:42;;;;;;;12.43;7.90;;;;;;;13.15;89.12;96397.50;5009879;28;20038;-80
2021/07/03 05:19:08;;;;;;;12.20;7.90;;;;;;;13.30;89.03;96391.50;4993841;28;20105;-80
2021/07/03 05:21:34;;;;;;;12.33;7.53;;;;;;;13.59;87.93;96385.59;5012050;28;20022;-80
2021/07/03 05:23:59;;;;;;;11.83;7.50;;;;;;;13.82;85.68;96381.16;5000275;28;20042;-80
2021/07/03 05:26:25;;;;;;;11.30;7.50;;;;;;;13.97;86.68;96377.72;5014507;28;20089;-80
2021/07/03 05:28:51;;;;;;;11.40;7.23;;;;;;;14.05;87.33;96370.56;5029506;28;20042;-79
2021/07/03 05:31:17;;;;;;;11.20;7.93;;;;;;;14.34;86.80;96371.63;5010800;28;20168;-79
2021/07/03 05:33:42;;;;;;;11.90;7.97;;;;;;;14.54;87.39;96375.44;5015038;28;20034;-79
2021/07/03 05:36:08;;;;;;;11.03;7.80;;;;;;;14.80;86.75;96374.19;5015007;28;20025;-80
2021/07/03 05:38:46;;;;;;;14.23;8.40;;;;;;;14.97;87.35;96377.50;5014494;28;20038;-80
2021/07/03 05:41:12;;;;;;;11.43;7.97;;;;;;;14.98;87.52;96376.47;5014418;28;20060;-79
2021/07/03 05:43:40;;;;;;;11.90;7.80;;;;;;;15.02;85.11;96372.44;5014494;28;20603;-80
2021/07/03 05:46:06;;;;;;;11.93;7.37;;;;;;;15.16;83.52;96369.00;4998865;28;20121;-80
2021/07/03 05:48:34;;;;;;;12.20;6.93;;;;;;;15.22;83.25;96370.06;4997731;28;20022;-80
2021/07/03 05:50:59;;;;;;;9.80;6.73;;;;;;;15.63;81.55;96364.25;4995387;28;20031;-79
2021/07/03 05:53:25;;;;;;;11.10;7.03;;;;;;;15.97;81.54;96355.63;5013818;28;20032;-80
2021/07/03 05:55:51;;;;;;;12.57;6.77;;;;;;;16.23;79.22;96355.03;5013600;28;20386;-80
2021/07/03 05:58:16;;;;;;;10.30;6.97;;;;;;;16.56;78.48;96355.28;5013107;28;20076;-80
2021/07/03 06:00:42;;;;;;;10.43;7.43;;;;;;;16.69;78.32;96360.69;5012877;28;20037;-79
2021/07/03 06:03:08;;;;;;;10.57;6.83;;;;;;;16.86;76.69;96349.78;4999000;28;20386;-80
2021/07/03 06:05:39;;;;;;;8.82;6.85;;;;;;;17.46;74.87;96350.88;5012749;28;20037;-79
2021/07/03 06:08:05;;;;;;;11.07;6.93;;;;;;;18.00;71.60;96351.84;4995831;28;20117;-79
2021/07/03 06:10:30;;;;;;;10.32;6.68;;;;;;;17.92;72.55;96338.75;4997403;28;20022;-79
2021/07/03 06:12:59;;;;;;;7.97;5.75;;;;;;;17.63;72.73;96341.53;5014003;28;20116;-79
2021/07/03 06:15:24;;;;;;;10.65;6.65;;;;;;;17.46;75.45;96334.94;5013169;28;20122;-79
2021/07/03 06:17:50;;;;;;;9.15;6.47;;;;;;;17.93;73.49;96335.88;5013358;28;20186;-79
2021/07/03 06:20:17;;;;;;;10.50;5.80;;;;;;;18.01;71.89;96335.69;5015706;28;20041;-80
2021/07/03 06:22:43;;;;;;;9.40;6.35;;;;;;;18.29;70.00;96337.34;5001858;28;20029;-79
2021/07/03 06:25:10;;;;;;;8.75;6.10;;;;;;;18.17;70.80;96337.13;5014848;28;20419;-79
2021/07/03 06:27:41;;;;;;;9.48;6.28;;;;;;;19.06;69.31;96336.63;4998642;28;20112;-80
2021/07/03 06:30:09;;;;;;;9.57;5.55;;;;;;;19.58;66.19;96333.94;5007460;28;20100;-79
2021/07/03 06:32:35;;;;;;;9.15;6.20;;;;;;;19.06;66.41;96341.97;5012862;28;20038;-80
2021/07/03 06:35:00;;;;;;;8.85;5.55;;;;;;;19.07;68.01;96340.13;5012574;28;20037;-79
2021/07/03 06:37:26;;;;;;;7.93;5.15;;;;;;;19.77;60.28;96326.91;5010735;28;20480;-79
2021/07/03 06:39:52;;;;;;;10.05;4.88;;;;;;;20.52;57.49;96326.97;5012762;28;20087;-80
2021/07/03 06:42:19;;;;;;;6.75;5.07;;;;;;;20.53;57.23;96325.16;5012484;28;20030;-81
2021/07/03 06:44:45;;;;;;;9.00;5.32;;;;;;;20.98;55.93;96327.56;5029411;28;20029;-79
2021/07/03 06:47:14;;;;;;;9.63;5.78;;;;;;;21.00;56.09;96323.63;5013205;28;20026;-80
2021/07/03 06:49:42;;;;;;;7.70;5.07;;;;;;;21.24;55.43;96326.44;5013074;28;20104;-80
2021/07/03 06:52:09;;;;;;;9.85;5.60;;;;;;;21.32;55.66;96320.78;5014924;28;20034;-80
2021/07/03 06:54:39;;;;;;;7.15;4.72;;;;;;;21.84;52.33;96315.81;5012740;28;20373;-79
2021/07/03 06:57:05;;;;;;;7.75;5.30;;;;;;;22.45;52.17;96321.88;5011924;28;20022;-80
2021/07/03 06:59:32;;;;;;;6.70;4.68;;;;;;;22.27;51.80;96323.63;5008825;28;20575;-80
2021/07/03 07:01:58;;;;;;;7.55;5.13;;;;;;;22.93;50.41;96320.84;5010169;28;20030;-78
2021/07/03 07:04:24;;;;;;;7.18;5.25;;;;;;;22.00;51.32;96325.03;5012169;28;20038;-79
2021/07/03 07:06:52;;;;;;;10.07;5.53;;;;;;;21.25;54.60;96328.88;5012190;28;20030;-80
2021/07/03 07:09:18;;;;;;;7.45;5.13;;;;;;;22.83;50.52;96324.91;4996190;28;20026;-80
2021/07/03 07:11:45;;;;;;;6.95;4.70;;;;;;;22.10;51.61;96328.00;5012826;28;20597;-79
2021/07/03 07:14:13;;;;;;;6.85;4.72;;;;;;;22.23;53.10;96318.94;5007753;28;20710;-79
2021/07/03 07:16:42;;;;;;;8.57;5.38;;;;;;;21.88;52.57;96325.00;5011541;28;20056;-80
2021/07/03 07:19:08;;;;;;;9.63;5.90;;;;;;;22.72;50.02;96309.66;4995594;28;20038;-80
2021/07/03 07:21:34;;;;;;;8.90;5.20;;;;;;;23.30;47.86;96308.75;5012309;28;20025;-80
2021/07/03 07:24:01;;;;;;;7.70;5.22;;;;;;;24.03;44.86;96301.00;5011867;28;20095;-79
2021/07/03 07:26:37;;;;;;;8.48;5.38;;;;;;;24.60;43.87;96305.44;4995317;28;20712;-80
2021/07/03 07:29:03;;;;;;;7.30;4.97;;;;;;;25.06;40.80;96304.22;5012979;28;20044;-80
2021/07/03 07:31:29;;;;;;;7.65;4.97;;;;;;;23.29;45.57;96306.31;5013040;28;20093;-80
2021/07/03 07:33:55;;;;;;;7.32;5.18;;;;;;;24.59;41.13;96298.44;5013020;28;20443;-80
2021/07/03 07:36:22;;;;;;;6.88;4.68;;;;;;;25.24;39.00;96299.63;5013825;28;20079;-80
2021/07/03 07:38:48;;;;;;;6.68;4.50;;;;;;;26.25;37.70;96294.47;5015096;28;20018;-82
2021/07/03 07:41:15;;;;;;;6.60;4.78;;;;;;;25.75;37.33;96305.56;5035997;28;20017;-80
2021/07/03 07:43:42;;;;;;;9.40;5.72;;;;;;;25.09;41.50;96303.72;5026319;28;20038;-80
2021/07/03 07:46:09;;;;;;;7.70;5.15;;;;;;;26.70;35.18;96301.31;5030469;28;20030;-80
2021/07/03 07:48:37;;;;;;;6.03;4.43;;;;;;;27.06;34.16;96298.00;4992651;28;20030;-80
2021/07/03 07:51:04;;;;;;;7.13;5.18;;;;;;;26.28;35.71;96293.97;5011193;28;20057;-80
2021/07/03 07:53:30;;;;;;;7.57;4.78;;;;;;;26.25;36.23;96296.34;5012590;28;20034;-80
2021/07/03 07:55:57;;;;;;;6.95;4.78;;;;;;;26.26;36.36;96287.22;5027810;28;20547;-79
2021/07/03 07:58:23;;;;;;;7.55;4.88;;;;;;;24.99;38.03;96294.69;5011871;28;20021;-80
2021/07/03 08:00:49;;;;;;;6.30;4.32;;;;;;;26.60;35.12;96285.06;5010450;28;20692;-79
2021/07/03 08:03:14;;;;;;;7.07;4.72;;;;;;;26.73;35.06;96286.50;4995426;28;20053;-80
2021/07/03 08:05:40;;;;;;;7.40;4.97;;;;;;;26.93;36.28;96281.22;4993690;28;20037;-80
2021/07/03 08:08:06;;;;;;;9.38;4.75;;;;;;;27.56;34.29;96286.63;4996699;28;20471;-80
2021/07/03 08:10:42;;;;;;;6.55;4.78;;;;;;;27.54;34.63;96283.38;4994786;28;20112;-80
2021/07/03 08:13:09;;;;;;;9.00;5.53;;;;;;;27.03;34.90;96294.78;4995185;28;20069;-80
2021/07/03 08:15:35;;;;;;;6.93;4.72;;;;;;;27.95;33.79;96284.31;5010820;28;20036;-80
2021/07/03 08:18:03;;;;;;;8.48;5.53;;;;;;;27.23;35.38;96287.84;5011158;28;20030;-79
2021/07/03 08:20:29;;;;;;;9.32;5.53;;;;;;;28.00;33.80;96288.09;5010923;28;20041;-78
2021/07/03 08:22:56;;;;;;;6.88;4.43;;;;;;;27.60;35.58;96284.19;4994910;28;20552;-80
2021/07/03 08:25:23;;;;;;;6.70;4.88;;;;;;;27.68;33.77;96289.09;5011553;28;21037;-80
2021/07/03 08:27:51;;;;;;;6.32;4.70;;;;;;;27.21;30.81;96295.41;5024253;28;20038;-81
2021/07/03 08:30:19;;;;;;;7.68;4.60;;;;;;;28.52;31.51;96279.75;5012541;28;20026;-79
2021/07/03 08:32:45;;;;;;;6.25;4.47;;;;;;;29.31;30.73;96272.78;5012640;28;20026;-81
2021/07/03 08:35:15;;;;;;;6.95;4.35;;;;;;;29.16;30.54;96270.13;5011144;28;20035;-80
2021/07/03 08:37:41;;;;;;;6.35;4.43;;;;;;;29.54;30.93;96275.91;5014297;28;20038;-81
2021/07/03 08:40:08;;;;;;;6.25;4.60;;;;;;;28.81;29.60;96274.56;4998208;28;20021;-80
2021/07/03 08:42:37;;;;;;;7.82;5.07;;;;;;;28.65;31.83;96272.97;5008985;28;20041;-80
2021/07/03 08:45:03;;;;;;;7.90;4.78;;;;;;;29.53;29.84;96263.47;5009230;28;20083;-80
2021/07/03 08:47:30;;;;;;;7.32;4.38;;;;;;;30.46;29.61;96261.78;4993215;28;20554;-80
2021/07/03 08:49:58;;;;;;;5.47;4.40;;;;;;;31.23;28.16;96257.16;5015943;28;20124;-80
2021/07/03 08:52:25;;;;;;;7.28;4.60;;;;;;;29.27;30.43;96255.44;5006217;28;20022;-81
2021/07/03 08:55:17;;;;;;;7.72;4.72;;;;;;;28.11;32.65;96265.41;5026664;28;20037;-80
2021/07/03 08:57:50;;;;;;;7.57;4.93;;;;;;;28.55;31.87;96259.44;5003800;28;20096;-80
2021/07/03 09:00:31;;;;;;;6.63;4.47;;;;;;;28.22;33.58;96260.81;4986617;28;20073;-80
2021/07/03 09:02:57;;;;;;;6.18;4.45;;;;;;;29.33;31.05;96254.34;4988884;28;20088;-80
2021/07/03 09:05:30;;;;;;;7.30;4.72;;;;;;;29.64;30.97;96247.97;4990423;28;20026;-81
2021/07/03 09:08:06;;;;;;;6.40;4.90;;;;;;;29.40;30.22;96254.03;5010249;28;20038;-80
2021/07/03 09:10:33;;;;;;;6.30;4.68;;;;;;;30.21;29.69;96251.94;5010981;28;20559;-81
2021/07/03 09:13:01;;;;;;;6.35;4.53;;;;;;;30.91;28.32;96249.66;5012285;28;20069;-80
2021/07/03 09:15:36;;;;;;;6.72;4.57;;;;;;;30.79;28.85;96245.75;4992518;28;20049;-80
2021/07/03 09:18:06;;;;;;;8.38;5.07;;;;;;;30.65;31.47;96245.56;5007844;28;20038;-82
2021/07/03 09:20:33;;;;;;;7.68;5.10;;;;;;;30.45;29.50;96241.13;5004257;28;20057;-81
2021/07/03 09:23:03;;;;;;;6.38;4.97;;;;;;;30.77;28.60;96249.53;4994458;28;20108;-80
2021/07/03 09:25:30;;;;;;;6.63;4.45;;;;;;;31.04;26.88;96253.59;5025569;28;20041;-81
2021/07/03 09:28:23;;;;;;;5.40;4.30;;;;;;;29.35;27.59;96252.19;5008155;28;20061;-80
2021/07/03 09:30:51;;;;;;;6.70;4.47;;;;;;;30.16;27.85;96243.81;5002045;28;20034;-80
2021/07/03 09:33:38;;;;;;;7.60;4.70;;;;;;;30.12;28.87;96240.06;4992119;28;20026;-80
2021/07/03 09:36:10;;;;;;;6.25;4.18;;;;;;;30.95;28.49;96239.00;5010243;28;20030;-79
2021/07/03 09:39:02;;;;;;;6.25;4.32;;;;;;;32.05;27.24;96239.75;5006036;28;20030;-80
2021/07/03 09:41:37;;;;;;;6.90;4.95;;;;;;;31.57;27.24;96234.47;4998124;28;20042;-81
2021/07/03 09:44:09;;;;;;;5.55;3.92;;;;;;;31.61;26.19;96234.69;5010439;28;20088;-80
2021/07/03 09:46:41;;;;;;;7.13;4.00;;;;;;;31.53;26.87;96238.06;5010935;28;20030;-79
2021/07/03 09:49:12;;;;;;;6.85;3.92;;;;;;;30.21;27.60;96238.38;5011397;28;20125;-80
2021/07/03 09:51:47;;;;;;;6.68;4.50;;;;;;;30.37;28.56;96239.06;4995062;28;20049;-80
2021/07/03 09:54:15;;;;;;;6.97;4.07;;;;;;;31.65;26.67;96224.81;5009978;28;20587;-80
2021/07/03 09:56:41;;;;;;;7.13;5.45;;;;;;;31.54;28.01;96229.59;5010837;28;20026;-81
2021/07/03 09:59:08;;;;;;;6.10;4.60;;;;;;;30.81;28.02;96225.31;5011758;28;20044;-79
2021/07/03 10:01:38;;;;;;;7.90;5.40;;;;;;;30.71;27.72;96228.94;5006344;28;20113;-79
2021/07/03 10:04:04;;;;;;;6.30;4.55;;;;;;;31.26;27.53;96227.81;5021193;28;20104;-80
2021/07/03 10:06:42;;;;;;;5.78;3.95;;;;;;;31.97;26.92;96220.59;5012447;28;20033;-80
2021/07/03 10:09:32;;;;;;;8.27;4.60;;;;;;;33.36;25.14;96214.22;5016995;28;20038;-81
2021/07/03 10:12:04;;;;;;;6.82;4.50;;;;;;;31.93;25.73;96213.00;5012653;28;21001;-80
2021/07/03 10:14:43;;;;;;;6.45;4.72;;;;;;;31.96;25.27;96214.34;5010800;28;20104;-80
2021/07/03 10:17:09;;;;;;;7.32;4.35;;;;;;;32.17;25.90;96215.59;5013344;28;20034;-82
2021/07/03 10:19:38;;;;;;;6.03;4.22;;;;;;;33.01;25.12;96211.94;5030569;28;20014;-79
2021/07/03 10:22:33;;;;;;;5.72;4.30;;;;;;;31.63;25.38;96208.00;5013146;28;20100;-80
2021/07/03 10:25:12;;;;;;;5.38;3.70;;;;;;;31.92;27.67;96216.00;5009482;28;20053;-81
2021/07/03 10:27:56;;;;;;;5.78;4.32;;;;;;;31.90;26.11;96210.06;5006772;28;20045;-81
2021/07/03 10:30:33;;;;;;;5.82;4.25;;;;;;;32.07;26.37;96204.09;5022256;28;20040;-80
2021/07/03 10:33:07;;;;;;;6.57;4.25;;;;;;;31.88;26.38;96198.69;5018580;28;20037;-81
2021/07/03 10:35:42;;;;;;;5.50;4.18;;;;;;;32.19;25.50;96192.72;5031187;28;20061;-81
2021/07/03 10:38:23;;;;;;;6.18;4.57;;;;;;;32.20;26.77;96191.63;5011836;28;20409;-82
2021/07/03 10:40:51;;;;;;;7.32;5.60;;;;;;;31.76;26.67;96192.84;5007610;28;20072;-79
2021/07/03 10:43:17;;;;;;;5.60;3.90;;;;;;;32.75;25.50;96187.09;5029770;28;20022;-81
2021/07/03 10:45:47;;;;;;;4.90;3.92;;;;;;;32.72;26.89;96176.00;5031301;28;20040;-82
2021/07/03 10:48:19;;;;;;;6.68;4.00;;;;;;;33.03;22.19;96182.47;4999063;28;20101;-80
2021/07/03 10:50:46;;;;;;;5.88;3.40;;;;;;;33.82;22.64;96175.81;5017796;28;20033;-81
2021/07/03 10:53:38;;;;;;;6.63;4.45;;;;;;;34.12;22.33;96170.75;5003553;28;20018;-82
2021/07/03 10:56:13;;;;;;;10.82;8.07;;;;;;;33.76;23.20;96164.22;4998683;28;20044;-83
2021/07/03 10:58:43;;;;;;;6.35;3.90;;;;;;;34.30;22.72;96168.94;5031701;28;20057;-82
2021/07/03 11:01:16;;;;;;;5.15;3.65;;;;;;;33.89;23.14;96181.66;5052334;28;20026;-83
2021/07/03 11:03:46;;;;;;;5.75;3.60;;;;;;;34.67;22.68;96175.88;5035173;28;20105;-81
2021/07/03 11:06:17;;;;;;;6.88;4.10;;;;;;;33.94;24.75;96169.81;5025132;28;20041;-79
2021/07/03 11:08:44;;;;;;;8.73;4.40;;;;;;;34.53;23.94;96165.06;5020374;28;20030;-79
2021/07/03 11:11:12;;;;;;;5.80;3.75;;;;;;;33.65;23.59;96171.03;5014132;28;20045;-81
2021/07/03 11:13:39;;;;;;;6.95;3.92;;;;;;;34.14;23.37;96172.06;5008970;28;20050;-81
2021/07/03 11:16:11;;;;;;;6.22;4.68;;;;;;;33.94;23.66;96170.63;5019749;28;20037;-82
2021/07/03 11:18:43;;;;;;;6.97;4.60;;;;;;;31.95;26.54;96166.47;5013095;28;20030;-82
2021/07/03 11:21:13;;;;;;;6.25;3.72;;;;;;;31.95;25.94;96169.19;5013351;28;20103;-81
2021/07/03 11:23:43;;;;;;;5.18;3.78;;;;;;;32.03;26.03;96165.78;5012524;28;20037;-81
2021/07/03 11:26:14;;;;;;;5.60;4.10;;;;;;;32.65;26.66;96167.44;5014533;28;20112;-81
2021/07/03 11:28:46;;;;;;;6.13;4.38;;;;;;;32.44;27.79;96162.38;4984471;28;20034;-82
2021/07/03 11:31:12;;;;;;;4.50;3.28;;;;;;;33.65;23.44;96159.34;5003722;28;20034;-82
2021/07/03 11:33:40;;;;;;;5.70;4.05;;;;;;;34.26;23.56;96152.38;5013045;28;20543;-81
2021/07/03 11:36:11;;;;;;;6.50;3.53;;;;;;;31.71;24.42;96161.13;5016928;28;20079;-80